createdAt,value
2022-10-03T00:00:37.127Z,99.99
2022-10-03T00:01:37.620Z,99.99
2022-10-03T00:02:37.178Z,99.99
2022-10-03T00:03:37.086Z,99.99
2022-10-03T00:04:37.097Z,99.99
2022-10-03T00:05:37.066Z,99.99
2022-10-03T00:06:37.070Z,99.99
2022-10-03T00:07:37.083Z,99.99
2022-10-03T00:08:37.039Z,99.99
2022-10-03T00:09:37.016Z,99.99
2022-10-03T00:10:37.015Z,99.99
2022-10-03T00:11:37.243Z,99.99
2022-10-03T00:12:37.011Z,99.99
2022-10-03T00:13:36.983Z,99.99
2022-10-03T00:14:36.967Z,99.99
2022-10-03T00:15:37.026Z,99.99
2022-10-03T00:16:36.996Z,99.99
2022-10-03T00:17:36.936Z,99.99
2022-10-03T00:18:36.936Z,99.99
2022-10-03T00:19:36.920Z,99.99
2022-10-03T00:20:36.920Z,99.99
2022-10-03T00:21:37.313Z,99.99
2022-10-03T00:22:36.888Z,99.99
2022-10-03T00:23:36.855Z,99.99
2022-10-03T00:24:36.867Z,99.99
2022-10-03T00:25:36.855Z,99.99
2022-10-03T00:26:36.839Z,99.99
2022-10-03T00:27:36.807Z,99.99
2022-10-03T00:28:36.820Z,99.99
2022-10-03T00:29:36.822Z,99.99
2022-10-03T00:30:36.787Z,99.99
2022-10-03T00:31:36.991Z,99.99
2022-10-03T00:32:36.903Z,99.99
2022-10-03T00:33:36.752Z,99.99
2022-10-03T00:34:36.750Z,99.99
2022-10-03T00:35:36.735Z,99.99
2022-10-03T00:36:36.724Z,99.99
2022-10-03T00:37:36.708Z,99.99
2022-10-03T00:38:36.699Z,99.99
2022-10-03T00:39:36.715Z,99.99
2022-10-03T00:40:36.667Z,99.99
2022-10-03T00:41:37.084Z,99.99
2022-10-03T00:42:36.668Z,99.99
2022-10-03T00:43:36.639Z,99.99
2022-10-03T00:44:36.639Z,99.99
2022-10-03T00:45:36.639Z,99.99
2022-10-03T00:46:36.651Z,99.99
2022-10-03T00:47:36.608Z,99.99
2022-10-03T00:48:36.587Z,99.99
2022-10-03T00:49:36.572Z,99.99
2022-10-03T00:50:36.568Z,99.99
2022-10-03T00:51:36.766Z,99.99
2022-10-03T00:52:36.548Z,99.99
2022-10-03T00:53:36.523Z,99.99
2022-10-03T00:54:36.519Z,99.99
2022-10-03T00:55:36.499Z,99.99
2022-10-03T00:56:36.509Z,99.99
2022-10-03T00:57:36.475Z,99.99
2022-10-03T00:58:36.467Z,99.99
2022-10-03T00:59:36.464Z,99.99
2022-10-03T01:00:36.502Z,99.99
2022-10-03T01:01:36.610Z,99.99
2022-10-03T01:02:36.585Z,99.99
2022-10-03T01:03:36.411Z,99.99
2022-10-03T01:04:36.416Z,99.99
2022-10-03T01:05:36.388Z,99.99
2022-10-03T01:06:36.401Z,99.99
2022-10-03T01:07:36.362Z,99.99
2022-10-03T01:08:36.360Z,99.99
2022-10-03T01:09:36.332Z,99.99
2022-10-03T01:10:36.361Z,99.99
2022-10-03T01:11:36.836Z,99.99
2022-10-03T01:12:36.421Z,99.99
2022-10-03T01:13:36.300Z,99.99
2022-10-03T01:14:36.320Z,99.99
2022-10-03T01:15:36.296Z,99.99
2022-10-03T01:16:36.292Z,99.99
2022-10-03T01:17:36.261Z,99.99
2022-10-03T01:18:36.252Z,99.99
2022-10-03T01:19:36.220Z,99.99
2022-10-03T01:20:36.284Z,99.99
2022-10-03T01:21:36.350Z,99.99
2022-10-03T01:22:36.236Z,99.99
2022-10-03T01:23:36.201Z,99.99
2022-10-03T01:24:36.230Z,99.99
2022-10-03T01:25:36.160Z,99.99
2022-10-03T01:26:36.160Z,99.99
2022-10-03T01:27:36.168Z,99.99
2022-10-03T01:28:36.149Z,99.99
2022-10-03T01:29:36.144Z,99.99
2022-10-03T01:30:36.140Z,99.99
2022-10-03T01:31:36.245Z,99.99
2022-10-03T01:32:36.380Z,99.99
2022-10-03T01:33:36.061Z,99.99
2022-10-03T01:34:36.073Z,99.99
2022-10-03T01:35:36.049Z,99.99
2022-10-03T01:36:36.048Z,99.99
2022-10-03T01:37:36.081Z,99.99
2022-10-03T01:38:36.021Z,99.99
2022-10-03T01:39:36.005Z,99.99
2022-10-03T01:40:36.013Z,99.99
2022-10-03T01:41:35.982Z,99.99
2022-10-03T01:42:35.993Z,99.99
2022-10-03T01:43:35.952Z,99.99
2022-10-03T01:44:35.953Z,99.99
2022-10-03T01:45:35.968Z,99.99
2022-10-03T01:46:36.024Z,99.99
2022-10-03T01:47:35.937Z,99.99
2022-10-03T01:48:35.915Z,99.99
2022-10-03T01:49:35.901Z,99.99
2022-10-03T01:50:35.882Z,99.99
2022-10-03T01:51:35.872Z,99.99
2022-10-03T01:52:35.870Z,99.99
2022-10-03T01:53:35.841Z,99.99
2022-10-03T01:54:35.873Z,99.99
2022-10-03T01:55:35.837Z,99.99
2022-10-03T01:56:35.816Z,99.99
2022-10-03T01:57:35.824Z,99.99
2022-10-03T01:58:35.793Z,99.99
2022-10-03T01:59:35.801Z,99.99
2022-10-03T02:00:35.823Z,99.99
2022-10-03T02:01:35.908Z,99.99
2022-10-03T02:02:35.778Z,99.99
2022-10-03T02:03:35.779Z,99.99
2022-10-03T02:04:35.842Z,99.99
2022-10-03T02:05:35.758Z,99.99
2022-10-03T02:06:35.740Z,99.99
2022-10-03T02:07:35.705Z,99.99
2022-10-03T02:08:35.693Z,99.99
2022-10-03T02:09:35.661Z,99.99
2022-10-03T02:10:35.723Z,99.99
2022-10-03T02:11:35.661Z,99.99
2022-10-03T02:12:35.655Z,99.99
2022-10-03T02:13:35.621Z,99.99
2022-10-03T02:14:35.750Z,99.99
2022-10-03T02:15:35.610Z,99.99
2022-10-03T02:16:35.644Z,99.99
2022-10-03T02:17:35.577Z,99.99
2022-10-03T02:18:35.574Z,99.99
2022-10-03T02:19:35.541Z,99.99
2022-10-03T02:20:35.555Z,99.99
2022-10-03T02:21:35.546Z,99.99
2022-10-03T02:22:35.533Z,99.99
2022-10-03T02:23:35.502Z,99.99
2022-10-03T02:24:35.505Z,99.99
2022-10-03T02:25:35.473Z,99.99
2022-10-03T02:26:35.482Z,99.99
2022-10-03T02:27:35.462Z,99.99
2022-10-03T02:28:35.484Z,99.99
2022-10-03T02:29:35.446Z,99.99
2022-10-03T02:30:35.439Z,99.99
2022-10-03T02:31:35.476Z,99.99
2022-10-03T02:32:35.433Z,99.99
2022-10-03T02:33:35.394Z,99.99
2022-10-03T02:34:35.374Z,99.99
2022-10-03T02:35:35.374Z,99.99
2022-10-03T02:36:35.362Z,99.99
2022-10-03T02:37:35.387Z,99.99
2022-10-03T02:38:35.342Z,99.99
2022-10-03T02:39:35.326Z,99.99
2022-10-03T02:40:35.313Z,99.99
2022-10-03T02:41:35.305Z,99.99
2022-10-03T02:42:35.297Z,99.99
2022-10-03T02:43:35.306Z,99.99
2022-10-03T02:44:35.261Z,99.99
2022-10-03T02:45:35.287Z,99.99
2022-10-03T02:46:35.249Z,99.99
2022-10-03T02:47:35.254Z,99.99
2022-10-03T02:48:35.234Z,99.99
2022-10-03T02:49:35.260Z,99.99
2022-10-03T02:50:35.199Z,99.99
2022-10-03T02:51:35.234Z,99.99
2022-10-03T02:52:35.207Z,99.99
2022-10-03T02:53:35.250Z,99.99
2022-10-03T02:54:35.258Z,99.99
2022-10-03T02:55:35.214Z,99.99
2022-10-03T02:56:35.307Z,99.99
2022-10-03T02:57:35.214Z,99.99
2022-10-03T02:58:35.229Z,99.99
2022-10-03T02:59:35.254Z,99.99
2022-10-03T03:00:35.350Z,99.99
2022-10-03T03:01:35.242Z,99.99
2022-10-03T03:02:35.367Z,99.99
2022-10-03T03:03:35.302Z,99.99
2022-10-03T03:04:35.276Z,99.99
2022-10-03T03:05:35.267Z,99.99
2022-10-03T03:06:35.306Z,99.99
2022-10-03T03:07:35.271Z,99.99
2022-10-03T03:08:35.001Z,99.99
2022-10-03T03:09:35.014Z,99.99
2022-10-03T03:10:34.967Z,99.99
2022-10-03T03:11:34.973Z,99.99
2022-10-03T03:12:39.156Z,99.99
2022-10-03T03:13:35.951Z,99.99
2022-10-03T03:14:34.927Z,99.99
2022-10-03T03:15:34.938Z,99.99
2022-10-03T03:16:34.921Z,99.99
2022-10-03T03:17:34.906Z,99.99
2022-10-03T03:18:34.914Z,99.99
2022-10-03T03:19:34.886Z,99.99
2022-10-03T03:20:34.867Z,99.99
2022-10-03T03:21:34.863Z,99.99
2022-10-03T03:22:34.842Z,99.99
2022-10-03T03:23:34.839Z,99.99
2022-10-03T03:24:35.466Z,99.99
2022-10-03T03:25:34.815Z,99.99
2022-10-03T03:26:34.795Z,99.99
2022-10-03T03:27:34.794Z,99.99
2022-10-03T03:28:34.775Z,99.99
2022-10-03T03:29:34.775Z,99.99
2022-10-03T03:30:34.768Z,99.99
2022-10-03T03:31:34.881Z,99.99
2022-10-03T03:32:34.747Z,99.99
2022-10-03T03:33:34.727Z,99.99
2022-10-03T03:34:34.780Z,99.99
2022-10-03T03:35:34.746Z,99.99
2022-10-03T03:36:34.679Z,99.99
2022-10-03T03:37:34.690Z,99.99
2022-10-03T03:38:34.659Z,99.99
2022-10-03T03:39:34.647Z,99.99
2022-10-03T03:40:34.656Z,99.99
2022-10-03T03:41:34.959Z,99.99
2022-10-03T03:42:34.628Z,99.99
2022-10-03T03:43:34.607Z,99.99
2022-10-03T03:44:34.595Z,99.99
2022-10-03T03:45:34.666Z,99.99
2022-10-03T03:46:34.627Z,99.99
2022-10-03T03:47:34.571Z,99.99
2022-10-03T03:48:34.547Z,99.99
2022-10-03T03:49:34.547Z,99.99
2022-10-03T03:50:34.515Z,99.99
2022-10-03T03:51:34.515Z,99.99
2022-10-03T03:52:34.536Z,99.99
2022-10-03T03:53:41.569Z,99.99
2022-10-03T03:54:34.471Z,99.99
2022-10-03T03:55:35.200Z,99.99
2022-10-03T03:56:34.452Z,99.99
2022-10-03T03:57:34.467Z,99.99
2022-10-03T03:58:34.439Z,99.99
2022-10-03T03:59:34.440Z,99.99
2022-10-03T04:00:34.416Z,99.99
2022-10-03T04:01:34.513Z,99.99
2022-10-03T04:02:34.519Z,99.99
2022-10-03T04:03:34.413Z,99.99
2022-10-03T04:04:34.359Z,99.99
2022-10-03T04:05:34.421Z,99.99
2022-10-03T04:06:34.399Z,99.99
2022-10-03T04:07:34.411Z,99.99
2022-10-03T04:08:34.522Z,99.99
2022-10-03T04:09:34.479Z,99.99
2022-10-03T04:10:34.439Z,99.99
2022-10-03T04:11:34.547Z,99.99
2022-10-03T04:12:34.503Z,99.99
2022-10-03T04:13:34.540Z,99.99
2022-10-03T04:14:34.511Z,99.99
2022-10-03T04:15:34.580Z,99.99
2022-10-03T04:16:34.359Z,99.99
2022-10-03T04:17:34.240Z,99.99
2022-10-03T04:18:34.244Z,99.99
2022-10-03T04:19:34.259Z,99.99
2022-10-03T04:20:34.268Z,99.99
2022-10-03T04:21:34.459Z,99.99
2022-10-03T04:22:34.264Z,99.99
2022-10-03T04:23:34.814Z,99.99
2022-10-03T04:24:34.281Z,99.99
2022-10-03T04:25:34.281Z,99.99
2022-10-03T04:26:34.264Z,99.99
2022-10-03T04:27:34.283Z,99.99
2022-10-03T04:28:34.585Z,99.99
2022-10-03T04:29:34.322Z,99.99
2022-10-03T04:30:34.304Z,99.99
2022-10-03T04:31:34.416Z,99.99
2022-10-03T04:32:34.328Z,99.99
2022-10-03T04:33:34.071Z,99.99
2022-10-03T04:34:34.036Z,99.99
2022-10-03T04:35:34.051Z,99.99
2022-10-03T04:36:34.020Z,99.99
2022-10-03T04:37:34.019Z,99.99
2022-10-03T04:38:33.988Z,99.99
2022-10-03T04:39:33.981Z,99.99
2022-10-03T04:40:33.972Z,99.99
2022-10-03T04:41:33.960Z,99.99
2022-10-03T04:42:33.952Z,99.99
2022-10-03T04:43:33.932Z,99.99
2022-10-03T04:44:33.921Z,99.99
2022-10-03T04:45:33.982Z,99.99
2022-10-03T04:46:33.893Z,99.99
2022-10-03T04:47:33.892Z,99.99
2022-10-03T04:48:33.891Z,99.99
2022-10-03T04:49:33.881Z,99.99
2022-10-03T04:50:33.883Z,99.99
2022-10-03T04:51:33.841Z,99.99
2022-10-03T04:52:33.825Z,99.99
2022-10-03T04:53:33.820Z,99.99
2022-10-03T04:54:33.804Z,99.99
2022-10-03T04:55:33.821Z,99.99
2022-10-03T04:56:33.793Z,99.99
2022-10-03T04:57:33.804Z,99.99
2022-10-03T04:58:33.782Z,99.99
2022-10-03T04:59:33.773Z,99.99
2022-10-03T05:00:33.732Z,99.99
2022-10-03T05:01:33.774Z,99.99
2022-10-03T05:02:33.819Z,99.99
2022-10-03T05:03:33.721Z,99.99
2022-10-03T05:04:33.681Z,99.99
2022-10-03T05:05:33.681Z,99.99
2022-10-03T05:06:33.676Z,99.99
2022-10-03T05:07:33.715Z,99.99
2022-10-03T05:08:33.649Z,99.99
2022-10-03T05:09:33.646Z,99.99
2022-10-03T05:10:33.625Z,99.99
2022-10-03T05:11:33.624Z,99.99
2022-10-03T05:12:33.613Z,99.99
2022-10-03T05:13:33.620Z,99.99
2022-10-03T05:14:33.580Z,99.99
2022-10-03T05:15:33.593Z,99.99
2022-10-03T05:16:33.598Z,99.99
2022-10-03T05:17:33.561Z,99.99
2022-10-03T05:18:33.553Z,99.99
2022-10-03T05:19:33.520Z,99.99
2022-10-03T05:20:33.513Z,99.99
2022-10-03T05:21:33.532Z,99.99
2022-10-03T05:22:33.485Z,99.99
2022-10-03T05:23:33.480Z,99.99
2022-10-03T05:24:33.473Z,99.99
2022-10-03T05:25:33.461Z,99.99
2022-10-03T05:26:44.991Z,99.99
2022-10-03T05:27:34.469Z,99.99
2022-10-03T05:28:33.502Z,99.99
2022-10-03T05:29:33.421Z,99.99
2022-10-03T05:30:33.402Z,99.99
2022-10-03T05:31:33.429Z,99.99
2022-10-03T05:32:33.382Z,99.99
2022-10-03T05:33:33.381Z,99.99
2022-10-03T05:34:33.373Z,99.99
2022-10-03T05:35:33.354Z,99.99
2022-10-03T05:36:33.340Z,99.99
2022-10-03T05:37:33.325Z,99.99
2022-10-03T05:38:33.313Z,99.99
2022-10-03T05:39:33.334Z,99.99
2022-10-03T05:40:33.301Z,99.99
2022-10-03T05:41:33.290Z,99.99
2022-10-03T05:42:33.269Z,99.99
2022-10-03T05:43:33.262Z,99.99
2022-10-03T05:44:33.245Z,99.99
2022-10-03T05:45:33.297Z,99.99
2022-10-03T05:46:33.213Z,99.99
2022-10-03T05:47:33.217Z,99.99
2022-10-03T05:48:33.203Z,99.99
2022-10-03T05:49:33.196Z,99.99
2022-10-03T05:50:33.229Z,99.99
2022-10-03T05:51:33.169Z,99.99
2022-10-03T05:52:33.162Z,99.99
2022-10-03T05:53:33.150Z,99.99
2022-10-03T05:54:33.130Z,99.99
2022-10-03T05:55:33.145Z,99.99
2022-10-03T05:56:35.586Z,99.99
2022-10-03T05:57:33.113Z,99.99
2022-10-03T05:58:33.093Z,99.99
2022-10-03T05:59:33.097Z,99.99
2022-10-03T06:00:33.101Z,99.99
2022-10-03T06:01:33.113Z,99.99
2022-10-03T06:02:33.224Z,99.99
2022-10-03T06:03:33.147Z,99.99
2022-10-03T06:04:33.107Z,99.99
2022-10-03T06:05:33.224Z,99.99
2022-10-03T06:06:33.253Z,99.99
2022-10-03T06:07:33.031Z,99.99
2022-10-03T06:08:32.985Z,99.99
2022-10-03T06:09:32.965Z,99.99
2022-10-03T06:10:33.494Z,99.99
2022-10-03T06:11:33.322Z,99.99
2022-10-03T06:12:32.941Z,99.99
2022-10-03T06:13:32.921Z,99.99
2022-10-03T06:14:32.902Z,99.99
2022-10-03T06:15:32.894Z,99.99
2022-10-03T06:16:32.958Z,99.99
2022-10-03T06:17:32.894Z,99.99
2022-10-03T06:18:32.866Z,99.99
2022-10-03T06:19:32.882Z,99.99
2022-10-03T06:20:32.866Z,99.99
2022-10-03T06:21:32.822Z,99.99
2022-10-03T06:22:32.826Z,99.99
2022-10-03T06:23:32.833Z,99.99
2022-10-03T06:24:32.803Z,99.99
2022-10-03T06:25:32.786Z,99.99
2022-10-03T06:26:32.883Z,99.99
2022-10-03T06:27:32.986Z,99.99
2022-10-03T06:28:32.874Z,99.99
2022-10-03T06:29:32.854Z,99.99
2022-10-03T06:30:33.133Z,99.99
2022-10-03T06:31:32.914Z,99.99
2022-10-03T06:32:32.858Z,99.99
2022-10-03T06:33:32.860Z,99.99
2022-10-03T06:34:32.823Z,99.99
2022-10-03T06:35:32.846Z,99.99
2022-10-03T06:36:32.843Z,99.99
2022-10-03T06:37:32.830Z,99.99
2022-10-03T06:38:32.934Z,99.99
2022-10-03T06:39:32.683Z,99.99
2022-10-03T06:40:32.866Z,99.99
2022-10-03T06:41:32.954Z,99.99
2022-10-03T06:42:32.899Z,99.99
2022-10-03T06:43:32.602Z,99.99
2022-10-03T06:44:32.558Z,99.99
2022-10-03T06:45:32.579Z,99.99
2022-10-03T06:46:32.608Z,99.99
2022-10-03T06:47:32.558Z,99.99
2022-10-03T06:48:32.527Z,99.99
2022-10-03T06:49:32.510Z,99.99
2022-10-03T06:50:32.510Z,99.99
2022-10-03T06:51:32.480Z,99.99
2022-10-03T06:52:32.514Z,99.99
2022-10-03T06:53:32.474Z,99.99
2022-10-03T06:54:32.454Z,99.99
2022-10-03T06:55:32.447Z,99.99
2022-10-03T06:56:32.438Z,99.99
2022-10-03T06:57:32.414Z,99.99
2022-10-03T06:58:32.446Z,99.99
2022-10-03T06:59:32.420Z,99.99
2022-10-03T07:00:32.394Z,99.99
2022-10-03T07:01:32.476Z,99.99
2022-10-03T07:02:32.436Z,99.99
2022-10-03T07:03:32.368Z,99.99
2022-10-03T07:04:32.359Z,99.99
2022-10-03T07:05:32.335Z,99.99
2022-10-03T07:06:32.327Z,99.99
2022-10-03T07:07:32.315Z,99.99
2022-10-03T07:08:32.295Z,99.99
2022-10-03T07:09:32.287Z,99.99
2022-10-03T07:10:32.286Z,99.99
2022-10-03T07:11:32.267Z,99.99
2022-10-03T07:12:32.283Z,99.99
2022-10-03T07:13:32.260Z,99.99
2022-10-03T07:14:32.227Z,99.99
2022-10-03T07:15:57.891Z,99.99
2022-10-03T07:16:33.347Z,99.99
2022-10-03T07:17:32.184Z,99.99
2022-10-03T07:18:32.198Z,99.99
2022-10-03T07:19:32.174Z,99.99
2022-10-03T07:20:32.155Z,99.99
2022-10-03T07:21:32.166Z,99.99
2022-10-03T07:22:32.144Z,99.99
2022-10-03T07:23:32.127Z,99.99
2022-10-03T07:24:32.135Z,99.99
2022-10-03T07:25:32.095Z,99.99
2022-10-03T07:26:32.107Z,99.99
2022-10-03T07:27:32.091Z,99.99
2022-10-03T07:28:32.146Z,99.99
2022-10-03T07:29:32.074Z,99.99
2022-10-03T07:30:32.048Z,99.99
2022-10-03T07:31:32.134Z,99.99
2022-10-03T07:32:32.031Z,99.99
2022-10-03T07:33:35.471Z,99.99
2022-10-03T07:34:33.019Z,99.99
2022-10-03T07:35:31.978Z,99.99
2022-10-03T07:36:32.004Z,99.99
2022-10-03T07:37:31.962Z,99.99
2022-10-03T07:38:31.956Z,99.99
2022-10-03T07:39:32.307Z,99.99
2022-10-03T07:40:31.935Z,99.99
2022-10-03T07:41:31.938Z,99.99
2022-10-03T07:42:31.916Z,99.99
2022-10-03T07:43:31.908Z,99.99
2022-10-03T07:44:31.916Z,99.99
2022-10-03T07:45:31.875Z,99.99
2022-10-03T07:46:31.938Z,99.99
2022-10-03T07:47:31.876Z,99.99
2022-10-03T07:48:31.872Z,99.99
2022-10-03T07:49:31.843Z,99.99
2022-10-03T07:50:31.839Z,99.99
2022-10-03T07:51:31.853Z,99.99
2022-10-03T07:52:31.833Z,99.99
2022-10-03T07:53:31.957Z,99.99
2022-10-03T07:54:31.894Z,99.99
2022-10-03T07:55:31.826Z,99.99
2022-10-03T07:56:31.888Z,99.99
2022-10-03T07:57:31.879Z,99.99
2022-10-03T07:58:31.847Z,99.99
2022-10-03T07:59:31.884Z,99.99
2022-10-03T08:00:31.856Z,99.99
2022-10-03T08:01:31.864Z,99.99
2022-10-03T08:02:32.072Z,99.99
2022-10-03T08:03:31.962Z,99.99
2022-10-03T08:04:31.672Z,99.99
2022-10-03T08:05:31.665Z,99.99
2022-10-03T08:06:31.668Z,99.99
2022-10-03T08:07:31.681Z,99.99
2022-10-03T08:08:31.620Z,99.99
2022-10-03T08:09:31.599Z,99.99
2022-10-03T08:10:31.600Z,99.99
2022-10-03T08:11:31.584Z,99.99
2022-10-03T08:12:31.598Z,99.99
2022-10-03T08:13:31.568Z,99.99
2022-10-03T08:14:31.549Z,99.99
2022-10-03T08:15:31.592Z,99.99
2022-10-03T08:16:31.544Z,99.99
2022-10-03T08:17:31.532Z,99.99
2022-10-03T08:18:31.513Z,99.99
2022-10-03T08:19:31.504Z,99.99
2022-10-03T08:20:31.487Z,99.99
2022-10-03T08:21:31.468Z,99.99
2022-10-03T08:22:31.469Z,99.99
2022-10-03T08:23:31.501Z,99.99
2022-10-03T08:24:31.433Z,99.99
2022-10-03T08:25:31.440Z,99.99
2022-10-03T08:26:31.441Z,99.99
2022-10-03T08:27:31.408Z,99.99
2022-10-03T08:28:31.478Z,99.99
2022-10-03T08:29:31.391Z,99.99
2022-10-03T08:30:31.372Z,99.99
2022-10-03T08:31:31.420Z,99.99
2022-10-03T08:32:31.372Z,99.99
2022-10-03T08:33:31.354Z,99.99
2022-10-03T08:34:31.329Z,99.99
2022-10-03T08:35:31.304Z,99.99
2022-10-03T08:36:31.300Z,99.99
2022-10-03T08:37:31.302Z,99.99
2022-10-03T08:38:31.328Z,99.99
2022-10-03T08:39:31.348Z,99.99
2022-10-03T08:40:31.260Z,99.99
2022-10-03T08:41:31.255Z,99.99
2022-10-03T08:42:31.240Z,99.65
2022-10-03T08:43:31.220Z,99.44
2022-10-03T08:44:31.230Z,99.99
2022-10-03T08:45:31.203Z,99.50
2022-10-03T08:46:31.245Z,99.60
2022-10-03T08:47:31.170Z,99.99
2022-10-03T08:48:31.204Z,99.99
2022-10-03T08:49:31.185Z,99.51
2022-10-03T08:50:31.144Z,99.91
2022-10-03T08:51:31.125Z,99.62
2022-10-03T08:52:31.132Z,98.35
2022-10-03T08:53:31.102Z,97.19
2022-10-03T08:54:31.103Z,94.69
2022-10-03T08:55:31.101Z,94.93
2022-10-03T08:56:31.100Z,95.54
2022-10-03T08:57:31.073Z,95.90
2022-10-03T08:58:31.053Z,96.10
2022-10-03T08:59:31.033Z,96.81
2022-10-03T09:00:31.046Z,97.02
2022-10-03T09:01:31.052Z,97.02
2022-10-03T09:02:31.138Z,97.22
2022-10-03T09:03:36.641Z,96.81
2022-10-03T09:04:32.002Z,97.42
2022-10-03T09:05:30.969Z,96.56
2022-10-03T09:06:30.966Z,96.46
2022-10-03T09:07:30.941Z,95.75
2022-10-03T09:08:30.941Z,95.95
2022-10-03T09:09:34.387Z,97.44
2022-10-03T09:10:31.917Z,96.78
2022-10-03T09:11:30.913Z,95.62
2022-10-03T09:12:30.902Z,93.52
2022-10-03T09:13:30.873Z,93.83
2022-10-03T09:14:30.876Z,93.83
2022-10-03T09:15:30.874Z,93.52
2022-10-03T09:16:30.909Z,93.63
2022-10-03T09:17:30.826Z,93.59
2022-10-03T09:18:30.838Z,93.99
2022-10-03T09:19:31.465Z,93.48
2022-10-03T09:20:30.839Z,92.36
2022-10-03T09:21:33.740Z,92.30
2022-10-03T09:22:31.773Z,93.02
2022-10-03T09:23:30.773Z,93.63
2022-10-03T09:24:30.770Z,93.63
2022-10-03T09:25:30.745Z,93.52
2022-10-03T09:26:30.753Z,92.51
2022-10-03T09:27:30.733Z,93.22
2022-10-03T09:28:30.745Z,94.09
2022-10-03T09:29:30.699Z,93.38
2022-10-03T09:30:30.694Z,92.36
2022-10-03T09:31:30.720Z,92.06
2022-10-03T09:32:30.665Z,92.26
2022-10-03T09:33:30.653Z,92.47
2022-10-03T09:34:30.646Z,92.16
2022-10-03T09:35:30.625Z,92.26
2022-10-03T09:36:30.638Z,92.36
2022-10-03T09:37:30.606Z,92.83
2022-10-03T09:38:30.605Z,92.42
2022-10-03T09:39:30.578Z,92.32
2022-10-03T09:40:30.586Z,92.42
2022-10-03T09:41:30.588Z,92.68
2022-10-03T09:42:30.566Z,91.26
2022-10-03T09:43:30.546Z,90.14
2022-10-03T09:44:30.541Z,89.94
2022-10-03T09:45:30.505Z,89.74
2022-10-03T09:46:30.540Z,90.05
2022-10-03T09:47:30.498Z,90.55
2022-10-03T09:48:30.486Z,90.86
2022-10-03T09:49:30.467Z,90.25
2022-10-03T09:50:30.476Z,89.43
2022-10-03T09:51:30.465Z,89.54
2022-10-03T09:52:30.441Z,89.84
2022-10-03T09:53:30.446Z,89.74
2022-10-03T09:54:37.499Z,89.43
2022-10-03T09:55:30.398Z,89.64
2022-10-03T09:56:30.398Z,89.74
2022-10-03T09:57:30.418Z,89.64
2022-10-03T09:58:30.398Z,88.62
2022-10-03T09:59:30.374Z,89.13
2022-10-03T10:00:30.361Z,89.23
2022-10-03T10:01:30.350Z,89.28
2022-10-03T10:02:30.338Z,89.88
2022-10-03T10:03:30.364Z,90.39
2022-10-03T10:04:53.051Z,90.39
2022-10-03T10:05:31.297Z,89.48
2022-10-03T10:06:30.312Z,89.64
2022-10-03T10:07:30.266Z,89.84
2022-10-03T10:08:30.290Z,90.55
2022-10-03T10:09:30.254Z,90.31
2022-10-03T10:10:30.242Z,90.36
2022-10-03T10:11:34.357Z,89.76
2022-10-03T10:12:31.230Z,89.31
2022-10-03T10:13:44.243Z,89.31
2022-10-03T10:14:31.222Z,87.85
2022-10-03T10:15:30.171Z,87.74
2022-10-03T10:16:30.226Z,86.83
2022-10-03T10:17:30.164Z,87.08
2022-10-03T10:18:30.154Z,87.99
2022-10-03T10:19:30.163Z,87.89
2022-10-03T10:20:30.131Z,87.69
2022-10-03T10:21:30.122Z,87.12
2022-10-03T10:22:30.110Z,86.31
2022-10-03T10:23:30.083Z,86.86
2022-10-03T10:24:30.134Z,86.35
2022-10-03T10:25:30.072Z,86.45
2022-10-03T10:26:30.075Z,86.76
2022-10-03T10:27:30.047Z,85.94
2022-10-03T10:28:30.119Z,87.37
2022-10-03T10:29:30.044Z,87.12
2022-10-03T10:30:30.016Z,87.12
2022-10-03T10:31:30.087Z,87.43
2022-10-03T10:32:30.007Z,87.69
2022-10-03T10:33:29.975Z,86.88
2022-10-03T10:34:30.008Z,86.57
2022-10-03T10:35:29.955Z,86.47
2022-10-03T10:36:29.943Z,86.53
2022-10-03T10:37:29.939Z,85.82
2022-10-03T10:38:29.915Z,84.41
2022-10-03T10:39:29.904Z,85.11
2022-10-03T10:40:29.926Z,85.21
2022-10-03T10:41:29.908Z,84.70
2022-10-03T10:42:29.923Z,84.20
2022-10-03T10:43:29.923Z,84.81
2022-10-03T10:44:29.946Z,85.01
2022-10-03T10:45:29.963Z,84.50
2022-10-03T10:46:30.105Z,85.21
2022-10-03T10:47:30.079Z,85.11
2022-10-03T10:48:30.027Z,83.69
2022-10-03T10:49:30.035Z,82.92
2022-10-03T10:50:30.068Z,83.53
2022-10-03T10:51:29.779Z,82.92
2022-10-03T10:52:29.779Z,83.63
2022-10-03T10:53:29.768Z,84.24
2022-10-03T10:54:29.740Z,84.75
2022-10-03T10:55:29.735Z,84.85
2022-10-03T10:56:29.747Z,84.64
2022-10-03T10:57:29.699Z,83.77
2022-10-03T10:58:29.688Z,83.06
2022-10-03T10:59:29.687Z,83.06
2022-10-03T11:00:29.691Z,82.45
2022-10-03T11:01:29.687Z,83.06
2022-10-03T11:02:29.729Z,84.44
2022-10-03T11:03:29.660Z,84.55
2022-10-03T11:04:29.679Z,83.49
2022-10-03T11:05:29.654Z,82.38
2022-10-03T11:06:29.592Z,79.85
2022-10-03T11:07:29.588Z,78.33
2022-10-03T11:08:29.592Z,77.11
2022-10-03T11:09:29.591Z,76.64
2022-10-03T11:10:29.561Z,77.75
2022-10-03T11:11:29.539Z,78.77
2022-10-03T11:12:29.540Z,79.58
2022-10-03T11:13:34.816Z,80.49
2022-10-03T11:14:30.720Z,81.40
2022-10-03T11:15:29.504Z,80.59
2022-10-03T11:16:29.579Z,80.79
2022-10-03T11:17:29.505Z,80.86
2022-10-03T11:18:29.472Z,80.45
2022-10-03T11:19:29.520Z,80.76
2022-10-03T11:20:29.434Z,80.72
2022-10-03T11:21:29.460Z,80.62
2022-10-03T11:22:29.411Z,80.72
2022-10-03T11:23:29.432Z,80.27
2022-10-03T11:24:29.387Z,80.18
2022-10-03T11:25:29.399Z,78.82
2022-10-03T11:26:29.372Z,78.42
2022-10-03T11:27:29.364Z,76.50
2022-10-03T11:28:29.383Z,77.40
2022-10-03T11:29:29.344Z,77.50
2022-10-03T11:30:29.324Z,78.48
2022-10-03T11:31:29.390Z,77.87
2022-10-03T11:32:29.292Z,78.08
2022-10-03T11:33:29.300Z,77.23
2022-10-03T11:34:29.285Z,77.64
2022-10-03T11:35:29.272Z,77.80
2022-10-03T11:36:29.252Z,75.27
2022-10-03T11:37:29.299Z,74.16
2022-10-03T11:38:29.236Z,73.75
2022-10-03T11:39:29.232Z,73.69
2022-10-03T11:40:29.216Z,74.40
2022-10-03T11:41:29.216Z,75.01
2022-10-03T11:42:29.184Z,75.01
2022-10-03T11:43:29.205Z,74.90
2022-10-03T11:44:29.165Z,75.24
2022-10-03T11:45:29.191Z,75.85
2022-10-03T11:46:29.164Z,76.86
2022-10-03T11:47:29.240Z,76.05
2022-10-03T11:48:29.136Z,77.10
2022-10-03T11:49:29.137Z,77.20
2022-10-03T11:50:29.096Z,76.50
2022-10-03T11:51:29.116Z,77.00
2022-10-03T11:52:29.139Z,77.20
2022-10-03T11:53:29.076Z,76.53
2022-10-03T11:54:31.874Z,77.03
2022-10-03T11:55:29.049Z,77.03
2022-10-03T11:56:29.037Z,77.84
2022-10-03T11:57:29.029Z,77.30
2022-10-03T11:58:29.018Z,76.29
2022-10-03T11:59:29.001Z,75.11
2022-10-03T12:00:28.984Z,75.72
2022-10-03T12:01:28.976Z,76.32
2022-10-03T12:02:28.977Z,76.12
2022-10-03T12:03:29.047Z,76.43
2022-10-03T12:04:28.960Z,77.28
2022-10-03T12:05:28.936Z,77.88
2022-10-03T12:06:28.909Z,77.58
2022-10-03T12:07:28.940Z,78.66
2022-10-03T12:08:28.901Z,77.34
2022-10-03T12:09:28.888Z,77.84
2022-10-03T12:10:28.880Z,78.96
2022-10-03T12:11:28.868Z,76.59
2022-10-03T12:12:28.865Z,77.40
2022-10-03T12:13:28.848Z,77.20
2022-10-03T12:14:28.821Z,76.56
2022-10-03T12:15:28.848Z,75.75
2022-10-03T12:16:28.966Z,76.15
2022-10-03T12:17:28.790Z,75.24
2022-10-03T12:18:28.790Z,74.94
2022-10-03T12:19:28.782Z,74.23
2022-10-03T12:20:28.761Z,75.28
2022-10-03T12:21:28.773Z,76.26
2022-10-03T12:22:28.776Z,75.38
2022-10-03T12:23:28.767Z,76.56
2022-10-03T12:24:28.718Z,76.56
2022-10-03T12:25:28.714Z,76.52
2022-10-03T12:26:28.682Z,76.72
2022-10-03T12:27:28.723Z,75.92
2022-10-03T12:28:28.774Z,75.01
2022-10-03T12:29:28.705Z,75.31
2022-10-03T12:30:28.642Z,74.80
2022-10-03T12:31:28.686Z,75.31
2022-10-03T12:32:28.646Z,76.22
2022-10-03T12:33:28.665Z,75.71
2022-10-03T12:34:28.639Z,75.01
2022-10-03T12:35:28.639Z,75.31
2022-10-03T12:36:28.681Z,76.05
2022-10-03T12:37:28.666Z,76.86
2022-10-03T12:38:28.685Z,77.03
2022-10-03T12:39:28.693Z,76.62
2022-10-03T12:40:28.693Z,75.10
2022-10-03T12:41:28.778Z,74.60
2022-10-03T12:42:28.710Z,75.01
2022-10-03T12:43:28.505Z,75.81
2022-10-03T12:44:28.540Z,74.90
2022-10-03T12:45:28.541Z,74.19
2022-10-03T12:46:28.478Z,74.40
2022-10-03T12:47:53.850Z,75.24
2022-10-03T12:48:29.486Z,76.15
2022-10-03T12:49:28.465Z,76.46
2022-10-03T12:50:28.418Z,76.42
2022-10-03T12:51:28.417Z,76.12
2022-10-03T12:52:28.415Z,75.34